Time;durP1;ratioP1;P1;durP2;ratioP2;P2;SDS_P1;SDS_P2;PMS_P1;PMS_P2;Temp;Humidity;BMP_temperature;BMP_pressure;BME280_temperature;BME280_humidity;BME280_pressure;Samples;Min_cycle;Max_cycle;Signal;HPM_P1;HPM_P2
2022/11/14 00:00:09;;;;;;;24.00;16.30;;;7.40;99.90;;;;;;4994822;28;20104;-78
2022/11/14 00:02:36;;;;;;;23.73;15.85;;;7.40;99.90;;;;;;4995555;28;20050;-79
2022/11/14 00:05:02;;;;;;;24.92;15.40;;;7.40;99.90;;;;;;4994882;28;20126;-79
2022/11/14 00:07:32;;;;;;;27.02;17.15;;;7.40;99.90;;;;;;4994700;28;20074;-79
2022/11/14 00:09:57;;;;;;;23.90;15.20;;;7.50;99.90;;;;;;4994865;28;20050;-79
2022/11/14 00:12:23;;;;;;;25.60;16.30;;;7.50;99.90;;;;;;4994894;28;20097;-78
2022/11/14 00:14:50;;;;;;;29.42;17.95;;;7.50;99.90;;;;;;4993932;28;20398;-79
2022/11/14 00:17:17;;;;;;;23.65;15.07;;;7.40;99.90;;;;;;4993608;28;20127;-80
2022/11/14 00:19:43;;;;;;;29.42;16.02;;;7.60;99.90;;;;;;4994328;28;20433;-81
2022/11/14 00:22:09;;;;;;;23.48;16.15;;;7.60;99.90;;;;;;4993811;28;20050;-79
2022/11/14 00:24:35;;;;;;;28.08;18.52;;;7.60;99.90;;;;;;4994493;28;20514;-80
2022/11/14 00:27:01;;;;;;;26.58;16.13;;;7.50;99.90;;;;;;4994257;28;20129;-80
2022/11/14 00:29:26;;;;;;;30.33;18.98;;;7.60;99.90;;;;;;4993796;28;20046;-80
2022/11/14 00:31:52;;;;;;;24.90;17.73;;;7.60;99.90;;;;;;4994045;28;20053;-81
2022/11/14 00:34:18;;;;;;;28.33;17.90;;;7.60;99.90;;;;;;4993708;28;20051;-80
2022/11/14 00:36:43;;;;;;;27.48;17.35;;;7.60;99.90;;;;;;4993866;28;20456;-81
2022/11/14 00:39:13;;;;;;;23.42;14.95;;;7.60;99.90;;;;;;4994580;28;20478;-80
2022/11/14 00:41:40;;;;;;;27.20;18.40;;;7.60;99.90;;;;;;4994209;28;20074;-81
2022/11/14 00:44:06;;;;;;;29.15;18.50;;;7.60;99.90;;;;;;4994486;28;20104;-80
2022/11/14 00:46:32;;;;;;;27.38;16.98;;;7.60;99.90;;;;;;4994224;28;20094;-80
2022/11/14 00:48:58;;;;;;;25.92;18.63;;;7.60;99.90;;;;;;4992960;28;20050;-80
2022/11/14 00:51:24;;;;;;;29.40;19.63;;;7.60;99.90;;;;;;4992848;28;20053;-80
2022/11/14 00:53:49;;;;;;;29.65;17.92;;;7.60;99.90;;;;;;4993956;28;20047;-80
2022/11/14 00:56:15;;;;;;;33.67;20.48;;;7.60;99.90;;;;;;4993908;28;20088;-80
2022/11/14 00:58:41;;;;;;;34.05;18.65;;;7.60;99.90;;;;;;4992757;28;20050;-80
2022/11/14 01:01:06;;;;;;;33.60;20.50;;;7.60;99.90;;;;;;4992575;28;20080;-80
2022/11/14 01:03:32;;;;;;;34.47;22.10;;;7.60;99.90;;;;;;4992963;28;20138;-80
2022/11/14 01:06:04;;;;;;;38.35;22.20;;;7.60;99.90;;;;;;4992574;28;20460;-80
2022/11/14 01:08:30;;;;;;;35.45;22.17;;;7.60;99.90;;;;;;4993330;28;20347;-79
2022/11/14 01:10:56;;;;;;;39.88;21.33;;;7.60;99.90;;;;;;4992569;28;20482;-80
2022/11/14 01:13:22;;;;;;;42.50;25.85;;;7.70;99.90;;;;;;4994101;28;20047;-80
2022/11/14 01:15:48;;;;;;;40.45;24.70;;;8.00;99.90;;;;;;4994133;28;20533;-81
2022/11/14 01:18:17;;;;;;;39.10;23.80;;;7.60;99.90;;;;;;4993531;28;20077;-80
2022/11/14 01:20:45;;;;;;;40.47;25.48;;;8.00;99.90;;;;;;4993943;28;20125;-81
2022/11/14 01:23:12;;;;;;;48.60;28.50;;;7.50;99.90;;;;;;4993588;28;20164;-81
2022/11/14 01:25:40;;;;;;;36.03;21.05;;;7.50;99.90;;;;;;4992409;28;20054;-79
2022/11/14 01:28:14;;;;;;;37.95;25.42;;;7.50;99.90;;;;;;4992189;28;20057;-80
2022/11/14 01:30:40;;;;;;;42.80;23.65;;;7.40;99.90;;;;;;4993066;28;20057;-80
2022/11/14 01:33:06;;;;;;;39.83;26.55;;;6.80;99.90;;;;;;4993027;28;20501;-80
2022/11/14 01:35:34;;;;;;;46.38;30.00;;;7.40;99.90;;;;;;4993365;28;20042;-80
2022/11/14 01:38:00;;;;;;;48.53;28.40;;;7.40;99.90;;;;;;4993299;28;20092;-80
2022/11/14 01:40:26;;;;;;;44.22;26.30;;;7.40;99.90;;;;;;4992233;28;20054;-81
2022/11/14 01:43:30;;;;;;;45.97;27.58;;;7.30;99.90;;;;;;4992787;28;20050;-81
2022/11/14 01:46:00;;;;;;;45.58;27.92;;;7.30;99.90;;;;;;4992001;28;20460;-80
2022/11/14 01:48:51;;;;;;;48.60;30.17;;;7.30;99.90;;;;;;4991926;28;20065;-81
2022/11/14 01:51:31;;;;;;;48.67;29.02;;;7.30;99.90;;;;;;4965593;28;20077;-81
2022/11/14 01:54:00;;;;;;;48.67;26.98;;;7.40;99.90;;;;;;4993069;28;20057;-80
2022/11/14 01:56:31;;;;;;;45.22;27.13;;;7.20;99.90;;;;;;4992193;28;20045;-81
2022/11/14 01:59:10;;;;;;;52.33;29.88;;;7.20;99.90;;;;;;4993296;28;20065;-79
2022/11/14 02:01:43;;;;;;;44.70;28.33;;;7.30;99.90;;;;;;4993038;28;20054;-80
2022/11/14 02:04:12;;;;;;;46.67;29.17;;;7.90;99.90;;;;;;4993034;28;20092;-80
2022/11/14 02:06:39;;;;;;;47.38;29.27;;;7.60;99.90;;;;;;4992870;28;20050;-81
2022/11/14 02:09:06;;;;;;;53.65;31.48;;;7.30;99.90;;;;;;4992863;28;20053;-80
2022/11/14 02:11:39;;;;;;;51.30;28.17;;;7.30;99.90;;;;;;4991806;28;20046;-81
2022/11/14 02:14:06;;;;;;;48.13;30.63;;;7.30;99.90;;;;;;4992958;28;20051;-80
2022/11/14 02:16:32;;;;;;;47.53;27.77;;;7.30;99.90;;;;;;4992813;28;20495;-80
2022/11/14 02:18:57;;;;;;;53.90;29.60;;;7.40;99.90;;;;;;4992778;28;20054;-80
2022/11/14 02:21:23;;;;;;;50.67;28.60;;;7.30;99.90;;;;;;5008032;28;20062;-80
2022/11/14 02:23:49;;;;;;;48.00;30.10;;;7.40;99.90;;;;;;4993027;28;20069;-81
2022/11/14 02:26:19;;;;;;;51.50;30.73;;;7.40;99.90;;;;;;4992573;28;20050;-80
2022/11/14 02:28:45;;;;;;;48.00;28.63;;;7.40;99.90;;;;;;4991364;28;20047;-80
2022/11/14 02:31:11;;;;;;;48.72;29.17;;;7.40;99.90;;;;;;4991124;28;20046;-80
2022/11/14 02:33:37;;;;;;;48.60;28.63;;;7.40;99.90;;;;;;4993041;28;20065;-80
2022/11/14 02:36:03;;;;;;;55.10;30.80;;;7.40;99.90;;;;;;4992152;28;20133;-80
2022/11/14 02:38:28;;;;;;;47.00;27.75;;;7.40;99.90;;;;;;4992683;28;20046;-80
2022/11/14 02:40:54;;;;;;;46.05;28.65;;;7.40;99.90;;;;;;4993083;28;20050;-81
2022/11/14 02:43:20;;;;;;;44.63;26.88;;;7.60;99.90;;;;;;4992573;28;20129;-81
2022/11/14 02:45:46;;;;;;;53.20;31.77;;;7.40;99.90;;;;;;4991304;28;20133;-80
2022/11/14 02:48:12;;;;;;;46.55;30.02;;;7.50;99.90;;;;;;4991796;28;20113;-80
2022/11/14 02:50:37;;;;;;;48.53;27.60;;;7.40;99.90;;;;;;4991723;28;20054;-81
2022/11/14 02:53:03;;;;;;;48.78;28.55;;;7.40;99.90;;;;;;4992415;28;20042;-81
2022/11/14 02:55:29;;;;;;;49.72;27.98;;;7.40;99.90;;;;;;4995459;28;20397;-80
2022/11/14 02:57:54;;;;;;;49.40;27.58;;;7.40;99.90;;;;;;4995214;28;20089;-81
2022/11/14 03:00:20;;;;;;;48.40;28.98;;;7.40;99.90;;;;;;4996461;28;20043;-80
2022/11/14 03:02:46;;;;;;;47.78;28.60;;;7.40;99.90;;;;;;4996444;28;20050;-80
2022/11/14 03:05:11;;;;;;;47.78;27.83;;;7.40;99.90;;;;;;4995621;28;20046;-81
2022/11/14 03:07:37;;;;;;;49.17;30.13;;;7.80;99.90;;;;;;4995534;28;20046;-80
2022/11/14 03:10:04;;;;;;;45.17;27.67;;;7.40;99.90;;;;;;4995921;28;20142;-81
2022/11/14 03:12:29;;;;;;;44.75;28.75;;;7.40;99.90;;;;;;4995848;28;20479;-80
2022/11/14 03:14:55;;;;;;;47.10;26.25;;;7.80;99.90;;;;;;4995887;28;20057;-81
2022/11/14 03:17:23;;;;;;;47.53;27.75;;;8.30;99.90;;;;;;4995605;28;20042;-80
2022/11/14 03:19:49;;;;;;;45.03;24.52;;;7.40;99.90;;;;;;4995960;28;20066;-80
2022/11/14 03:22:15;;;;;;;51.17;28.80;;;7.40;99.90;;;;;;4995387;28;20471;-80
2022/11/14 03:24:40;;;;;;;44.92;26.98;;;7.50;99.90;;;;;;4995809;28;20042;-81
2022/11/14 03:27:06;;;;;;;45.65;27.20;;;7.50;99.90;;;;;;4994432;28;20125;-81
2022/11/14 03:29:32;;;;;;;45.38;26.55;;;7.30;99.90;;;;;;4995508;28;20069;-81
2022/11/14 03:31:57;;;;;;;48.42;27.23;;;7.40;99.90;;;;;;4995776;28;20121;-81
2022/11/14 03:34:23;;;;;;;43.55;25.42;;;7.40;99.90;;;;;;4994316;28;20050;-81
2022/11/14 03:36:49;;;;;;;47.72;29.27;;;7.40;99.90;;;;;;4995488;28;20439;-80
2022/11/14 03:39:14;;;;;;;46.20;27.65;;;7.50;99.90;;;;;;4995425;28;20125;-81
2022/11/14 03:41:40;;;;;;;41.13;25.95;;;7.40;99.90;;;;;;4994484;28;20050;-80
2022/11/14 03:44:05;;;;;;;43.28;25.17;;;7.40;99.90;;;;;;4978164;28;20455;-81
2022/11/14 03:46:31;;;;;;;48.25;27.33;;;7.40;99.90;;;;;;4995236;28;20050;-81
2022/11/14 03:48:57;;;;;;;43.80;27.23;;;7.40;99.90;;;;;;4994999;28;20096;-80
2022/11/14 03:51:22;;;;;;;48.83;27.98;;;7.40;99.90;;;;;;4978052;28;20477;-80
2022/11/14 03:53:48;;;;;;;50.65;30.08;;;7.40;99.90;;;;;;4995273;28;20443;-81
2022/11/14 03:56:14;;;;;;;53.47;29.15;;;7.40;99.90;;;;;;4995536;28;20559;-81
2022/11/14 03:58:39;;;;;;;43.85;26.52;;;7.40;99.90;;;;;;4993919;28;20059;-80
2022/11/14 04:01:05;;;;;;;50.10;27.98;;;7.40;99.90;;;;;;4994827;28;20133;-81
2022/11/14 04:03:31;;;;;;;45.22;28.80;;;7.40;99.90;;;;;;4995022;28;20086;-80
2022/11/14 04:05:56;;;;;;;45.60;27.77;;;7.60;99.90;;;;;;4994400;28;20129;-81
2022/11/14 04:08:22;;;;;;;46.05;27.13;;;7.40;99.90;;;;;;4995527;28;20046;-81
2022/11/14 04:10:48;;;;;;;45.05;27.08;;;7.40;99.90;;;;;;4995148;28;20078;-81
2022/11/14 04:13:14;;;;;;;51.08;29.00;;;7.40;99.90;;;;;;4977991;28;20050;-78
2022/11/14 04:15:40;;;;;;;49.28;29.58;;;7.50;99.90;;;;;;4993842;28;20089;-80
2022/11/14 04:18:06;;;;;;;45.90;28.02;;;7.40;99.90;;;;;;4977199;28;20050;-79
2022/11/14 04:20:32;;;;;;;46.30;26.55;;;7.40;99.90;;;;;;4995131;28;20058;-80
2022/11/14 04:22:57;;;;;;;46.17;28.58;;;7.40;99.90;;;;;;4994628;28;20042;-80
2022/11/14 04:25:23;;;;;;;38.65;22.98;;;7.40;99.90;;;;;;4994635;28;20042;-80
2022/11/14 04:27:48;;;;;;;38.38;22.85;;;7.40;99.90;;;;;;4993920;28;20122;-80
2022/11/14 04:30:14;;;;;;;45.28;26.13;;;7.40;99.90;;;;;;4993631;28;20504;-81
2022/11/14 04:32:40;;;;;;;42.63;27.48;;;7.40;99.90;;;;;;4994872;28;20089;-80
2022/11/14 04:35:06;;;;;;;40.33;25.10;;;7.50;99.90;;;;;;4994406;28;20047;-80
2022/11/14 04:37:32;;;;;;;46.97;24.70;;;7.40;99.90;;;;;;4994745;28;20054;-80
2022/11/14 04:39:59;;;;;;;46.25;27.65;;;7.40;99.90;;;;;;4993237;28;20480;-80
2022/11/14 04:42:25;;;;;;;46.80;27.25;;;7.40;99.90;;;;;;4993729;28;20136;-80
2022/11/14 04:44:51;;;;;;;43.22;27.52;;;7.40;99.90;;;;;;4994180;28;20082;-80
2022/11/14 04:47:17;;;;;;;50.50;28.70;;;7.50;99.90;;;;;;4994639;28;20104;-80
2022/11/14 04:49:43;;;;;;;43.50;26.80;;;8.00;99.90;;;;;;4993269;28;20061;-81
2022/11/14 04:52:08;;;;;;;42.20;26.35;;;7.40;99.90;;;;;;4994445;28;20555;-78
2022/11/14 04:54:34;;;;;;;37.03;23.48;;;7.40;99.90;;;;;;5009293;28;20034;-81
2022/11/14 04:56:59;;;;;;;41.92;26.70;;;7.90;99.90;;;;;;4993177;28;20085;-81
2022/11/14 04:59:25;;;;;;;44.30;27.55;;;7.40;99.90;;;;;;4993095;28;20058;-81
2022/11/14 05:01:51;;;;;;;43.50;25.67;;;7.40;99.90;;;;;;4993033;28;20534;-81
2022/11/14 05:04:16;;;;;;;44.50;26.13;;;7.30;99.90;;;;;;4992558;28;20540;-80
2022/11/14 05:06:42;;;;;;;43.42;24.90;;;7.40;99.90;;;;;;4994133;28;20057;-80
2022/11/14 05:09:08;;;;;;;47.95;26.35;;;7.30;99.90;;;;;;4993790;28;20050;-80
2022/11/14 05:11:33;;;;;;;44.65;27.55;;;7.60;99.90;;;;;;4993682;28;20050;-80
2022/11/14 05:13:59;;;;;;;42.75;28.92;;;7.30;99.90;;;;;;4993941;28;20046;-80
2022/11/14 05:16:25;;;;;;;46.15;28.50;;;7.30;99.90;;;;;;4992839;28;20125;-80
2022/11/14 05:18:53;;;;;;;47.42;28.88;;;7.30;99.90;;;;;;4992444;28;20069;-81
2022/11/14 05:21:19;;;;;;;45.55;26.90;;;7.30;99.90;;;;;;4993472;28;20129;-81
2022/11/14 05:23:45;;;;;;;42.45;27.23;;;7.30;99.90;;;;;;4992702;28;20046;-81
2022/11/14 05:26:16;;;;;;;46.55;27.67;;;7.40;99.90;;;;;;4993954;28;20046;-80
2022/11/14 05:28:41;;;;;;;46.47;27.35;;;7.60;99.90;;;;;;4993182;28;20061;-80
2022/11/14 05:31:11;;;;;;;48.53;28.17;;;7.30;99.90;;;;;;4993628;28;20362;-80
2022/11/14 05:33:36;;;;;;;51.20;28.98;;;7.30;99.90;;;;;;4992955;28;20108;-81
2022/11/14 05:36:09;;;;;;;51.25;28.45;;;7.30;99.90;;;;;;4992487;28;20477;-80
2022/11/14 05:38:34;;;;;;;45.42;28.63;;;7.30;99.90;;;;;;4993382;28;20060;-81
2022/11/14 05:41:15;;;;;;;45.28;29.00;;;7.30;99.90;;;;;;4993109;28;20125;-81
2022/11/14 05:43:43;;;;;;;51.63;30.13;;;7.40;99.90;;;;;;4993160;28;20050;-80
2022/11/14 05:46:11;;;;;;;48.67;29.52;;;7.20;99.90;;;;;;4993111;28;20053;-80
2022/11/14 05:48:37;;;;;;;52.03;28.67;;;7.20;99.90;;;;;;4993150;28;20042;-80
2022/11/14 05:51:05;;;;;;;48.25;26.85;;;7.20;99.90;;;;;;4992188;28;20348;-80
2022/11/14 05:53:32;;;;;;;47.28;29.45;;;7.20;99.90;;;;;;4991802;28;20046;-81
2022/11/14 05:56:11;;;;;;;54.05;29.17;;;7.20;99.90;;;;;;4993473;28;20089;-81
2022/11/14 05:58:37;;;;;;;48.85;29.30;;;7.20;99.90;;;;;;4992402;28;20057;-80
2022/11/14 06:01:14;;;;;;;47.08;28.17;;;7.60;99.90;;;;;;4991820;28;20108;-81
2022/11/14 06:03:43;;;;;;;53.28;29.63;;;7.20;99.90;;;;;;4993205;28;20539;-81
2022/11/14 06:06:11;;;;;;;48.15;30.73;;;7.10;99.90;;;;;;4992848;28;20042;-81
2022/11/14 06:08:37;;;;;;;57.17;31.52;;;7.20;99.90;;;;;;4993150;28;20121;-78
2022/11/14 06:11:05;;;;;;;49.10;29.98;;;7.20;99.90;;;;;;4992849;28;20525;-81
2022/11/14 06:13:32;;;;;;;45.78;28.83;;;7.20;99.90;;;;;;4993450;28;20137;-81
2022/11/14 06:16:00;;;;;;;49.25;29.98;;;7.20;99.90;;;;;;4993302;28;20043;-81
2022/11/14 06:18:25;;;;;;;45.00;28.73;;;7.20;99.90;;;;;;4991975;28;20055;-81
2022/11/14 06:20:51;;;;;;;50.75;28.35;;;7.20;99.90;;;;;;4993258;28;20061;-81
2022/11/14 06:23:17;;;;;;;50.28;29.83;;;7.20;99.90;;;;;;4992002;28;20056;-81
2022/11/14 06:25:42;;;;;;;46.65;29.30;;;7.20;99.90;;;;;;4991856;28;20150;-81
2022/11/14 06:28:08;;;;;;;50.10;30.33;;;7.10;99.90;;;;;;4992730;28;20054;-81
2022/11/14 06:30:34;;;;;;;47.20;28.98;;;7.30;99.90;;;;;;4995638;28;20085;-82
2022/11/14 06:32:59;;;;;;;46.20;26.63;;;7.10;99.90;;;;;;4996642;28;20050;-81
2022/11/14 06:35:26;;;;;;;51.85;30.35;;;7.20;99.90;;;;;;4996995;28;20050;-81
2022/11/14 06:37:52;;;;;;;50.22;29.73;;;7.10;99.90;;;;;;4996530;28;20442;-81
2022/11/14 06:40:18;;;;;;;50.47;31.30;;;7.00;99.90;;;;;;4997065;28;20046;-81
2022/11/14 06:42:43;;;;;;;48.53;29.90;;;7.00;99.90;;;;;;4996364;28;20057;-80
2022/11/14 06:45:09;;;;;;;49.63;29.55;;;7.00;99.90;;;;;;4996319;28;20042;-81
2022/11/14 06:47:35;;;;;;;52.10;31.75;;;7.00;99.90;;;;;;4996666;28;20046;-81
2022/11/14 06:50:01;;;;;;;54.55;32.25;;;7.40;99.90;;;;;;4996272;28;20058;-82
2022/11/14 06:52:26;;;;;;;48.47;30.10;;;7.00;99.90;;;;;;4996230;28;20447;-82
2022/11/14 06:54:52;;;;;;;52.28;31.10;;;7.00;99.90;;;;;;4996284;28;20049;-81
2022/11/14 06:57:18;;;;;;;49.95;31.83;;;7.00;99.90;;;;;;4979054;28;20474;-81
2022/11/14 06:59:44;;;;;;;51.17;30.98;;;7.00;99.90;;;;;;4995486;28;20386;-81
2022/11/14 07:02:12;;;;;;;48.03;26.60;;;7.00;99.90;;;;;;4996093;28;20061;-81
2022/11/14 07:04:38;;;;;;;46.75;29.20;;;7.00;99.90;;;;;;4995467;28;20100;-81
2022/11/14 07:07:04;;;;;;;50.13;29.52;;;7.00;99.90;;;;;;4996570;28;20054;-81
2022/11/14 07:09:30;;;;;;;50.83;29.27;;;6.90;99.90;;;;;;4995661;28;20438;-80
2022/11/14 07:11:55;;;;;;;54.63;32.70;;;6.90;99.90;;;;;;4996077;28;20078;-81
2022/11/14 07:14:21;;;;;;;55.22;31.13;;;6.90;99.90;;;;;;4995832;28;20101;-81
2022/11/14 07:16:47;;;;;;;51.47;30.17;;;6.90;99.90;;;;;;4978815;28;20050;-81
2022/11/14 07:19:12;;;;;;;53.67;30.77;;;7.40;99.90;;;;;;4995728;28;20058;-81
2022/11/14 07:21:38;;;;;;;53.60;30.85;;;7.00;99.90;;;;;;4995453;28;20054;-82
2022/11/14 07:24:04;;;;;;;50.22;31.55;;;7.00;99.90;;;;;;4995160;28;20061;-80
2022/11/14 07:26:30;;;;;;;54.90;32.35;;;7.00;99.90;;;;;;4995746;28;20054;-81
2022/11/14 07:28:56;;;;;;;52.65;30.13;;;7.00;99.90;;;;;;4978552;28;20082;-80
2022/11/14 07:31:22;;;;;;;53.42;31.88;;;7.00;99.90;;;;;;4995519;28;20050;-79
2022/11/14 07:33:48;;;;;;;45.85;29.98;;;7.00;99.90;;;;;;4995418;28;20567;-81
2022/11/14 07:36:15;;;;;;;52.58;31.52;;;7.00;99.90;;;;;;4994125;28;20061;-80
2022/11/14 07:38:41;;;;;;;51.10;30.10;;;7.00;99.90;;;;;;4995679;28;20050;-81
2022/11/14 07:41:09;;;;;;;49.83;31.55;;;7.10;99.90;;;;;;4994440;28;20177;-80
2022/11/14 07:43:35;;;;;;;47.35;27.77;;;7.00;99.90;;;;;;4995243;28;20053;-81
2022/11/14 07:46:07;;;;;;;47.85;26.92;;;6.90;99.90;;;;;;4995714;28;20422;-81
2022/11/14 07:48:33;;;;;;;48.05;29.85;;;6.90;99.90;;;;;;4994008;28;20046;-81
2022/11/14 07:51:03;;;;;;;46.05;24.48;;;6.90;99.90;;;;;;4994375;28;20057;-80
2022/11/14 07:53:29;;;;;;;50.42;31.25;;;6.90;99.90;;;;;;4995205;28;20057;-83
2022/11/14 07:55:56;;;;;;;44.10;29.38;;;7.40;99.90;;;;;;4994947;28;20057;-82
2022/11/14 07:58:22;;;;;;;54.70;30.90;;;6.80;99.90;;;;;;4993742;28;20378;-81
2022/11/14 08:00:48;;;;;;;49.15;30.60;;;6.90;99.90;;;;;;4977813;28;20128;-81
2022/11/14 08:03:14;;;;;;;46.78;29.70;;;6.90;99.90;;;;;;4994541;28;20046;-81
2022/11/14 08:05:39;;;;;;;53.13;31.85;;;6.90;99.90;;;;;;4994940;28;20052;-82
2022/11/14 08:08:05;;;;;;;50.65;30.90;;;6.90;99.90;;;;;;4994453;28;20042;-81
2022/11/14 08:10:31;;;;;;;49.55;31.48;;;6.90;99.90;;;;;;4994458;28;20046;-81
2022/11/14 08:13:04;;;;;;;52.33;30.80;;;7.40;99.90;;;;;;4994855;28;20042;-81
2022/11/14 08:15:29;;;;;;;;;;;6.90;99.90;;;;;;4994267;28;20370;-82
2022/11/14 08:17:59;;;;;;;49.17;29.48;;;7.10;99.90;;;;;;4993333;28;20009;-81
2022/11/14 08:20:26;;;;;;;56.70;34.15;;;7.00;99.90;;;;;;4993098;28;20061;-81
2022/11/14 08:23:00;;;;;;;50.00;30.35;;;7.10;99.90;;;;;;4993383;28;20094;-80
2022/11/14 08:25:25;;;;;;;47.20;28.85;;;7.10;99.90;;;;;;4978682;28;20089;-81
2022/11/14 08:27:52;;;;;;;46.53;28.70;;;7.10;99.90;;;;;;4993526;28;20074;-81
2022/11/14 08:30:18;;;;;;;49.03;30.08;;;7.10;99.90;;;;;;4994281;28;20093;-81
2022/11/14 08:32:43;;;;;;;46.63;30.70;;;7.10;99.90;;;;;;4994488;28;20050;-81
2022/11/14 08:35:09;;;;;;;47.05;28.90;;;7.10;99.90;;;;;;4993541;28;20050;-81
2022/11/14 08:37:35;;;;;;;53.88;31.23;;;7.20;99.90;;;;;;4994499;28;20508;-81
2022/11/14 08:40:00;;;;;;;54.75;32.13;;;7.30;99.90;;;;;;4993863;28;20042;-82
2022/11/14 08:42:27;;;;;;;45.78;27.85;;;7.30;99.90;;;;;;4994237;28;20046;-82
2022/11/14 08:44:53;;;;;;;48.75;29.75;;;7.30;99.90;;;;;;4993878;28;20050;-82
2022/11/14 08:47:18;;;;;;;51.40;29.23;;;7.20;99.90;;;;;;4994410;28;20042;-81
2022/11/14 08:49:44;;;;;;;43.20;27.70;;;7.30;99.90;;;;;;4994175;28;20050;-81
2022/11/14 08:52:10;;;;;;;45.38;28.40;;;7.20;99.90;;;;;;4993379;28;20069;-81
2022/11/14 08:54:35;;;;;;;49.63;28.65;;;7.40;99.90;;;;;;4994189;28;20038;-81
2022/11/14 08:57:01;;;;;;;48.80;29.65;;;7.30;99.90;;;;;;4993195;28;20073;-81
2022/11/14 08:59:27;;;;;;;50.13;30.17;;;7.40;99.90;;;;;;4994201;28;20049;-81
2022/11/14 09:01:52;;;;;;;44.53;26.55;;;7.50;99.90;;;;;;4993979;28;20504;-82
2022/11/14 09:04:18;;;;;;;49.47;28.55;;;7.60;99.90;;;;;;4994212;28;20516;-81
2022/11/14 09:06:45;;;;;;;46.40;27.30;;;7.60;99.90;;;;;;4993799;28;20517;-82
2022/11/14 09:09:10;;;;;;;48.00;29.42;;;7.60;99.90;;;;;;4994234;28;20058;-81
2022/11/14 09:11:36;;;;;;;48.10;27.38;;;7.60;99.90;;;;;;4993867;28;20493;-81
2022/11/14 09:14:02;;;;;;;42.40;27.27;;;7.60;99.90;;;;;;4993477;28;20510;-81
2022/11/14 09:16:28;;;;;;;42.92;24.80;;;7.70;99.90;;;;;;4994132;28;20096;-82
2022/11/14 09:18:54;;;;;;;42.58;25.92;;;7.60;99.90;;;;;;4991992;28;20062;-81
2022/11/14 09:21:19;;;;;;;42.70;26.25;;;8.10;99.90;;;;;;4992310;28;20054;-79
2022/11/14 09:23:46;;;;;;;36.75;24.85;;;7.70;99.90;;;;;;4992520;28;20046;-78
2022/11/14 09:26:12;;;;;;;45.78;27.35;;;7.70;99.90;;;;;;4992222;28;20053;-78
2022/11/14 09:28:38;;;;;;;45.85;27.30;;;7.60;99.90;;;;;;4993767;28;20500;-79
2022/11/14 09:31:06;;;;;;;42.35;27.88;;;7.70;99.90;;;;;;4993194;28;20065;-78
2022/11/14 09:33:33;;;;;;;40.05;26.52;;;7.70;99.90;;;;;;4993514;28;20085;-78
2022/11/14 09:36:00;;;;;;;42.55;27.70;;;7.80;99.90;;;;;;4976413;28;20086;-82
2022/11/14 09:38:26;;;;;;;39.90;26.00;;;7.80;99.90;;;;;;4993342;28;20054;-80
2022/11/14 09:41:23;;;;;;;37.42;22.67;;;7.80;99.90;;;;;;4993866;28;20050;-81
2022/11/14 09:44:27;;;;;;;40.38;24.73;;;7.80;99.90;;;;;;4992370;28;20056;-81
2022/11/14 09:47:00;;;;;;;43.50;27.67;;;7.80;99.90;;;;;;4975499;28;20058;-80
2022/11/14 09:49:40;;;;;;;48.38;28.52;;;7.80;99.90;;;;;;4992571;28;20454;-82
2022/11/14 09:52:32;;;;;;;43.45;26.98;;;7.90;99.90;;;;;;4993046;28;20049;-81
2022/11/14 09:55:01;;;;;;;43.78;26.25;;;8.10;99.90;;;;;;4992090;28;20501;-79
2022/11/14 09:57:28;;;;;;;41.25;27.58;;;8.20;99.90;;;;;;4992957;28;20047;-80
2022/11/14 09:59:55;;;;;;;38.05;24.35;;;8.20;99.90;;;;;;4991810;28;20065;-79
2022/11/14 10:02:30;;;;;;;42.78;26.60;;;8.20;99.90;;;;;;4992148;28;20065;-80
2022/11/14 10:05:41;;;;;;;45.78;27.30;;;8.30;99.90;;;;;;4991932;28;20058;-79
2022/11/14 10:08:41;;;;;;;45.70;27.30;;;8.20;99.90;;;;;;4917318;29;20090;-80
2022/11/14 10:11:12;;;;;;;43.40;24.95;;;8.30;99.90;;;;;;4887269;29;20051;-79
2022/11/14 10:14:06;;;;;;;38.13;25.00;;;8.30;99.90;;;;;;4980382;28;20055;-81
2022/11/14 10:16:49;;;;;;;42.50;26.27;;;8.20;99.90;;;;;;4993252;28;20086;-82
2022/11/14 10:19:37;;;;;;;40.72;25.38;;;8.10;99.90;;;;;;4993289;28;20145;-81
2022/11/14 10:22:54;;;;;;;44.47;27.52;;;8.10;99.90;;;;;;4992742;28;20093;-80
2022/11/14 10:25:23;;;;;;;43.90;26.92;;;8.10;99.90;;;;;;4940293;28;20126;-81
2022/11/14 10:28:10;;;;;;;38.72;25.55;;;8.10;99.90;;;;;;4993192;28;20189;-81
2022/11/14 10:30:40;;;;;;;41.78;24.23;;;8.20;99.90;;;;;;4992954;28;20058;-80
2022/11/14 10:33:24;;;;;;;47.70;27.10;;;8.30;99.90;;;;;;4992063;28;20058;-80
2022/11/14 10:36:25;;;;;;;44.17;25.65;;;8.30;99.90;;;;;;4992848;28;20046;-80
2022/11/14 10:39:24;;;;;;;41.60;22.50;;;8.30;99.90;;;;;;4975234;28;20054;-80
2022/11/14 10:41:54;;;;;;;43.17;25.33;;;8.30;99.90;;;;;;4969593;28;20074;-80
2022/11/14 10:44:25;;;;;;;44.30;24.75;;;8.30;99.90;;;;;;4992209;28;20061;-80
2022/11/14 10:46:59;;;;;;;39.08;26.58;;;8.30;99.90;;;;;;4992509;28;20046;-81
2022/11/14 10:49:28;;;;;;;41.83;23.25;;;8.30;99.90;;;;;;4992137;28;20054;-80
2022/11/14 10:52:03;;;;;;;37.90;24.15;;;8.40;99.90;;;;;;4993163;28;20077;-80
2022/11/14 10:54:51;;;;;;;36.70;24.00;;;8.50;99.90;;;;;;4992405;28;20378;-81
2022/11/14 10:57:19;;;;;;;36.17;22.42;;;8.80;99.90;;;;;;4992170;28;20066;-81
2022/11/14 10:59:46;;;;;;;39.90;24.92;;;8.70;99.90;;;;;;4991341;28;20054;-80
2022/11/14 11:02:12;;;;;;;41.50;25.52;;;8.70;99.90;;;;;;4991657;28;20058;-79
2022/11/14 11:04:42;;;;;;;41.72;23.58;;;8.80;99.90;;;;;;4992480;28;20136;-80
2022/11/14 11:07:07;;;;;;;35.58;22.17;;;8.80;99.90;;;;;;4975926;28;20046;-80
2022/11/14 11:12:39;;;;;;;38.92;25.92;;;8.80;99.90;;;;;;4991392;28;20051;-80
2022/11/14 11:15:19;;;;;;;34.63;22.35;;;8.80;99.90;;;;;;4993024;28;20047;-80
2022/11/14 11:17:56;;;;;;;36.83;23.17;;;9.00;99.90;;;;;;4978317;28;20057;-81
2022/11/14 11:20:29;;;;;;;32.92;22.83;;;8.90;99.90;;;;;;4994525;28;20125;-80
2022/11/14 11:23:05;;;;;;;32.95;21.70;;;8.90;99.90;;;;;;4995446;28;20042;-80
2022/11/14 11:25:33;;;;;;;36.78;21.30;;;8.90;99.90;;;;;;4996422;28;20085;-80
2022/11/14 11:28:11;;;;;;;38.00;22.90;;;9.20;99.90;;;;;;4994704;28;20129;-80
2022/11/14 11:30:37;;;;;;;35.25;20.08;;;9.00;99.90;;;;;;4994539;28;20061;-81
2022/11/14 11:33:26;;;;;;;32.25;19.40;;;8.90;99.90;;;;;;4994909;28;20069;-80
2022/11/14 11:36:02;;;;;;;28.20;18.50;;;9.00;99.90;;;;;;4994720;28;20058;-81
2022/11/14 11:38:30;;;;;;;40.10;25.05;;;9.00;99.90;;;;;;4995809;28;20133;-79
2022/11/14 11:41:25;;;;;;;36.03;23.85;;;9.20;99.90;;;;;;4995746;28;20050;-79
2022/11/14 11:44:00;;;;;;;34.42;22.75;;;9.20;99.90;;;;;;4984145;28;20054;-80
2022/11/14 11:46:41;;;;;;;36.30;21.00;;;9.20;99.90;;;;;;5010229;28;20052;-80
2022/11/14 11:49:18;;;;;;;36.83;25.00;;;9.20;99.90;;;;;;4994299;28;20080;-80
2022/11/14 11:51:45;;;;;;;30.63;21.10;;;9.20;99.90;;;;;;4994156;28;20476;-78
2022/11/14 11:54:22;;;;;;;32.10;20.98;;;9.10;99.90;;;;;;4994518;28;20054;-78
2022/11/14 11:56:53;;;;;;;32.40;22.13;;;9.10;99.90;;;;;;4994066;28;20121;-78
2022/11/14 11:59:25;;;;;;;31.55;22.08;;;9.10;99.90;;;;;;4994186;28;20046;-79
2022/11/14 12:01:51;;;;;;;32.92;22.40;;;9.00;99.90;;;;;;4994586;28;20046;-79
2022/11/14 12:04:17;;;;;;;33.70;21.58;;;9.10;99.90;;;;;;4995090;28;20150;-79
2022/11/14 12:07:11;;;;;;;40.25;22.17;;;9.10;99.90;;;;;;4994869;28;20049;-79
2022/11/14 12:09:39;;;;;;;38.53;24.85;;;9.10;99.90;;;;;;4995383;28;20050;-78
2022/11/14 12:12:29;;;;;;;33.22;21.75;;;9.20;99.90;;;;;;4995072;28;20050;-79
2022/11/14 12:15:20;;;;;;;33.03;21.85;;;9.30;99.90;;;;;;4985369;28;20497;-79
2022/11/14 12:18:03;;;;;;;35.15;22.15;;;9.30;99.90;;;;;;5002186;28;20069;-79
2022/11/14 12:20:55;;;;;;;34.38;21.95;;;9.30;99.90;;;;;;5009236;28;20058;-78
2022/11/14 12:23:45;;;;;;;34.72;20.30;;;9.30;99.90;;;;;;4994120;28;20050;-79
2022/11/14 12:26:35;;;;;;;38.30;22.20;;;9.30;99.90;;;;;;4977159;28;20043;-80
2022/11/14 12:29:10;;;;;;;29.85;18.30;;;9.40;99.90;;;;;;4993604;28;20054;-78
2022/11/14 12:31:38;;;;;;;29.95;20.08;;;9.40;99.90;;;;;;4993616;28;20502;-81
2022/11/14 12:34:14;;;;;;;38.42;23.52;;;9.40;99.90;;;;;;4993168;28;20066;-79
2022/11/14 12:36:44;;;;;;;37.95;23.85;;;9.50;99.90;;;;;;4993673;28;20054;-80
2022/11/14 12:39:24;;;;;;;33.70;21.80;;;9.50;99.90;;;;;;4994242;28;20125;-79
2022/11/14 12:41:49;;;;;;;34.15;22.95;;;9.50;99.90;;;;;;4994175;28;20046;-79
2022/11/14 12:44:18;;;;;;;33.22;21.40;;;9.60;99.90;;;;;;4994034;28;20471;-78
2022/11/14 12:47:05;;;;;;;35.97;21.90;;;9.50;99.90;;;;;;4993227;28;20469;-79
2022/11/14 12:49:46;;;;;;;32.42;21.95;;;9.50;99.90;;;;;;4993442;28;20047;-79
2022/11/14 12:52:39;;;;;;;32.92;22.00;;;9.60;99.90;;;;;;4993430;28;20059;-79